createdAt,value
2022-08-30T00:00:36.554Z,2.30
2022-08-30T00:03:03.818Z,2.10
2022-08-30T00:05:30.712Z,2.20
2022-08-30T00:07:58.104Z,2.10
2022-08-30T00:10:24.749Z,2.17
2022-08-30T00:12:51.469Z,2.33
2022-08-30T00:15:19.942Z,2.28
2022-08-30T00:17:46.717Z,2.35
2022-08-30T00:20:16.272Z,2.42
2022-08-30T00:22:42.886Z,2.30
2022-08-30T00:25:09.656Z,2.13
2022-08-30T00:27:36.274Z,2.08
2022-08-30T00:30:02.937Z,2.72
2022-08-30T00:32:29.548Z,2.17
2022-08-30T00:34:56.238Z,2.00
2022-08-30T00:37:23.329Z,2.50
2022-08-30T00:39:50.004Z,2.75
2022-08-30T00:42:17.718Z,2.35
2022-08-30T00:44:44.378Z,2.22
2022-08-30T00:47:11.172Z,2.60
2022-08-30T00:49:38.177Z,2.42
2022-08-30T00:52:05.029Z,2.40
2022-08-30T00:54:31.877Z,1.92
2022-08-30T00:56:58.579Z,2.50
2022-08-30T00:59:25.259Z,2.40
2022-08-30T01:01:52.017Z,2.70
2022-08-30T01:04:19.905Z,2.70
2022-08-30T01:06:46.680Z,2.30
2022-08-30T01:09:13.339Z,3.03
2022-08-30T01:11:40.324Z,2.53
2022-08-30T01:14:07.215Z,2.60
2022-08-30T01:16:34.404Z,2.80
2022-08-30T01:19:01.953Z,2.75
2022-08-30T01:21:42.540Z,2.60
2022-08-30T01:26:36.257Z,2.85
2022-08-30T01:29:05.827Z,2.50
2022-08-30T01:31:36.950Z,2.78
2022-08-30T01:34:05.190Z,2.55
2022-08-30T01:36:32.724Z,2.38
2022-08-30T01:38:59.751Z,2.58
2022-08-30T01:41:33.883Z,2.67
2022-08-30T01:44:01.761Z,2.53
2022-08-30T01:46:30.256Z,2.58
2022-08-30T01:48:58.025Z,2.53
2022-08-30T01:51:25.804Z,2.63
2022-08-30T01:53:52.852Z,2.97
2022-08-30T01:56:19.952Z,3.00
2022-08-30T01:58:47.051Z,3.05
2022-08-30T02:01:14.880Z,2.80
2022-08-30T02:03:42.522Z,2.67
2022-08-30T02:06:10.829Z,2.67
2022-08-30T02:08:38.102Z,2.70
2022-08-30T02:11:06.439Z,2.60
2022-08-30T02:13:33.792Z,3.00
2022-08-30T02:16:00.807Z,2.90
2022-08-30T02:18:27.850Z,3.20
2022-08-30T02:20:55.107Z,3.03
2022-08-30T02:23:22.128Z,2.85
2022-08-30T02:25:49.155Z,2.67
2022-08-30T02:28:15.799Z,2.95
2022-08-30T02:30:45.610Z,2.95
2022-08-30T02:33:12.302Z,2.90
2022-08-30T02:35:38.922Z,2.97
2022-08-30T02:38:05.568Z,3.00
2022-08-30T02:40:32.306Z,3.35
2022-08-30T02:42:58.954Z,3.08
2022-08-30T02:45:25.671Z,3.10
2022-08-30T02:47:52.411Z,2.50
2022-08-30T02:50:19.352Z,3.00
2022-08-30T02:52:48.147Z,3.13
2022-08-30T02:55:15.312Z,2.75
2022-08-30T02:57:41.937Z,3.20
2022-08-30T03:00:09.376Z,3.20
2022-08-30T03:02:35.992Z,3.10
2022-08-30T03:05:03.277Z,3.17
2022-08-30T03:07:29.896Z,3.22
2022-08-30T03:09:56.632Z,2.65
2022-08-30T03:12:23.250Z,2.97
2022-08-30T03:14:49.873Z,2.80
2022-08-30T03:17:16.878Z,3.08
2022-08-30T03:19:44.680Z,2.90
2022-08-30T03:22:11.512Z,2.67
2022-08-30T03:24:38.177Z,3.20
2022-08-30T03:27:04.895Z,3.10
2022-08-30T03:29:31.526Z,3.13
2022-08-30T03:31:58.186Z,3.20
2022-08-30T03:34:25.143Z,3.25
2022-08-30T03:36:52.609Z,2.60
2022-08-30T03:39:19.417Z,3.03
2022-08-30T03:41:46.060Z,2.90
2022-08-30T03:44:12.677Z,2.90
2022-08-30T03:46:39.895Z,2.45
2022-08-30T03:49:06.752Z,3.20
2022-08-30T03:51:33.809Z,3.00
2022-08-30T03:54:01.318Z,3.05
2022-08-30T03:56:27.942Z,2.78
2022-08-30T03:58:54.582Z,2.83
2022-08-30T04:01:21.297Z,2.80
2022-08-30T04:03:48.031Z,2.60
2022-08-30T04:06:14.703Z,2.53
2022-08-30T04:08:41.353Z,2.80
2022-08-30T04:11:08.041Z,2.78
2022-08-30T04:13:34.735Z,2.75
2022-08-30T04:16:01.593Z,2.80
2022-08-30T04:18:28.266Z,3.35
2022-08-30T04:20:54.876Z,2.97
2022-08-30T04:23:21.529Z,2.88
2022-08-30T04:25:48.221Z,2.72
2022-08-30T04:28:14.861Z,2.72
2022-08-30T04:30:44.697Z,3.63
2022-08-30T04:33:12.111Z,3.22
2022-08-30T04:35:41.730Z,3.55
2022-08-30T04:38:08.337Z,3.38
2022-08-30T04:40:35.094Z,3.50
2022-08-30T04:43:01.885Z,3.20
2022-08-30T04:45:28.768Z,3.20
2022-08-30T04:47:56.496Z,7.43
2022-08-30T04:50:24.090Z,3.83
2022-08-30T04:52:50.769Z,2.90
2022-08-30T04:55:20.287Z,3.28
2022-08-30T04:57:47.464Z,2.95
2022-08-30T05:00:14.704Z,3.30
2022-08-30T05:02:41.884Z,3.10
2022-08-30T05:05:27.978Z,3.15
2022-08-30T05:07:54.862Z,3.00
2022-08-30T05:10:21.540Z,3.55
2022-08-30T05:12:48.173Z,3.28
2022-08-30T05:15:14.940Z,3.22
2022-08-30T05:17:41.591Z,3.28
2022-08-30T05:20:09.398Z,3.38
2022-08-30T05:22:40.990Z,3.00
2022-08-30T05:25:08.056Z,3.38
2022-08-30T05:27:34.681Z,4.20
2022-08-30T05:30:06.153Z,3.78
2022-08-30T05:32:32.820Z,3.25
2022-08-30T05:34:59.449Z,3.45
2022-08-30T05:37:26.084Z,3.80
2022-08-30T05:39:52.767Z,3.58
2022-08-30T05:42:19.706Z,3.05
2022-08-30T05:44:47.678Z,4.97
2022-08-30T05:47:14.311Z,3.30
2022-08-30T05:49:41.010Z,3.20
2022-08-30T05:52:07.682Z,3.40
2022-08-30T05:54:34.315Z,3.25
2022-08-30T05:57:00.930Z,3.22
2022-08-30T05:59:27.635Z,3.47
2022-08-30T06:01:56.226Z,3.78
2022-08-30T06:04:22.901Z,3.60
2022-08-30T06:06:49.594Z,4.05
2022-08-30T06:09:16.444Z,4.53
2022-08-30T06:11:43.510Z,3.90
2022-08-30T06:14:10.143Z,3.30
2022-08-30T06:16:38.795Z,3.90
2022-08-30T06:19:06.086Z,2.90
2022-08-30T06:21:34.422Z,2.80
2022-08-30T06:24:01.284Z,3.65
2022-08-30T06:26:29.074Z,2.83
2022-08-30T06:28:56.217Z,2.45
2022-08-30T06:31:23.472Z,3.60
2022-08-30T06:33:50.843Z,2.38
2022-08-30T06:36:20.612Z,2.40
2022-08-30T06:38:50.249Z,2.33
2022-08-30T06:41:19.541Z,2.97
2022-08-30T06:43:49.055Z,2.67
2022-08-30T06:46:24.733Z,2.17
2022-08-30T06:48:51.729Z,2.42
2022-08-30T06:51:22.827Z,2.63
2022-08-30T06:53:49.761Z,2.70
2022-08-30T06:56:17.096Z,2.67
2022-08-30T06:58:44.021Z,4.20
2022-08-30T07:01:15.313Z,2.33
2022-08-30T07:03:41.937Z,2.75
2022-08-30T07:06:09.010Z,2.97
2022-08-30T07:08:36.006Z,2.35
2022-08-30T07:11:03.634Z,2.03
2022-08-30T07:13:30.457Z,2.15
2022-08-30T07:15:57.610Z,2.60
2022-08-30T07:18:43.295Z,2.30
2022-08-30T07:21:15.128Z,2.15
2022-08-30T07:23:42.705Z,2.10
2022-08-30T07:26:11.448Z,2.42
2022-08-30T07:28:38.835Z,2.40
2022-08-30T07:31:06.114Z,2.22
2022-08-30T07:33:32.757Z,2.20
2022-08-30T07:35:59.541Z,2.30
2022-08-30T07:38:28.962Z,2.53
2022-08-30T07:41:01.209Z,2.15
2022-08-30T07:43:28.725Z,3.80
2022-08-30T07:45:58.012Z,2.45
2022-08-30T07:48:24.700Z,1.80
2022-08-30T07:50:57.042Z,2.00
2022-08-30T07:53:24.950Z,2.00
2022-08-30T07:55:51.722Z,1.90
2022-08-30T07:58:18.434Z,2.30
2022-08-30T08:00:45.809Z,2.40
2022-08-30T08:03:12.930Z,1.90
2022-08-30T08:05:40.704Z,2.25
2022-08-30T08:08:07.771Z,2.10
2022-08-30T08:10:34.902Z,2.28
2022-08-30T08:13:02.131Z,2.33
2022-08-30T08:15:29.231Z,2.35
2022-08-30T08:17:56.511Z,2.55
2022-08-30T08:20:24.863Z,2.00
2022-08-30T08:22:51.905Z,2.28
2022-08-30T08:25:19.065Z,2.30
2022-08-30T08:27:50.709Z,2.10
2022-08-30T08:30:21.171Z,2.63
2022-08-30T08:32:48.004Z,2.00
2022-08-30T08:35:15.313Z,2.40
2022-08-30T08:37:41.985Z,2.00
2022-08-30T08:40:10.308Z,1.85
2022-08-30T08:42:42.174Z,1.83
2022-08-30T08:45:13.831Z,2.40
2022-08-30T08:47:47.226Z,2.20
2022-08-30T08:50:19.886Z,1.92
2022-08-30T08:53:24.974Z,2.15
2022-08-30T08:55:56.977Z,2.17
2022-08-30T08:58:28.129Z,2.08
2022-08-30T09:00:56.622Z,2.00
2022-08-30T09:03:25.003Z,1.85
2022-08-30T09:05:51.658Z,2.15
2022-08-30T09:08:19.042Z,1.80
2022-08-30T09:10:56.733Z,1.80
2022-08-30T09:13:24.651Z,2.20
2022-08-30T09:15:55.162Z,1.92
2022-08-30T09:18:40.272Z,2.08
2022-08-30T09:21:09.081Z,1.83
2022-08-30T09:23:36.129Z,1.75
2022-08-30T09:26:05.317Z,1.52
2022-08-30T09:28:33.438Z,1.92
2022-08-30T09:31:03.881Z,1.88
2022-08-30T09:33:31.046Z,1.63
2022-08-30T09:35:58.183Z,1.85
2022-08-30T09:38:32.852Z,1.90
2022-08-30T09:41:02.292Z,1.80
2022-08-30T09:43:33.192Z,1.80
2022-08-30T09:46:03.373Z,1.80
2022-08-30T09:48:33.481Z,1.60
2022-08-30T09:51:11.519Z,1.80
2022-08-30T09:54:01.231Z,2.10
2022-08-30T09:56:53.629Z,1.60
2022-08-30T09:59:23.733Z,1.60
2022-08-30T10:01:54.356Z,1.60
2022-08-30T10:04:33.922Z,1.63
2022-08-30T10:07:08.906Z,3.00
2022-08-30T10:09:38.580Z,1.55
2022-08-30T10:12:24.532Z,1.83
2022-08-30T10:14:52.638Z,1.60
2022-08-30T10:17:38.915Z,1.33
2022-08-30T10:20:10.154Z,1.50
2022-08-30T10:22:38.286Z,1.60
2022-08-30T10:25:12.320Z,1.30
2022-08-30T10:27:59.356Z,1.70
2022-08-30T10:30:26.508Z,1.25
2022-08-30T10:32:56.417Z,1.35
2022-08-30T10:35:24.173Z,1.80
2022-08-30T10:37:53.057Z,1.52
2022-08-30T10:40:42.855Z,1.73
2022-08-30T10:43:15.022Z,2.08
2022-08-30T10:45:42.743Z,1.80
2022-08-30T10:48:12.786Z,1.63
2022-08-30T10:50:43.960Z,1.92
2022-08-30T10:53:13.123Z,1.55
2022-08-30T10:55:49.373Z,1.50
2022-08-30T10:58:18.158Z,1.90
2022-08-30T11:00:45.191Z,1.80
2022-08-30T11:03:21.397Z,1.70
2022-08-30T11:05:59.399Z,2.10
2022-08-30T11:08:29.444Z,1.73
2022-08-30T11:11:00.904Z,1.60
2022-08-30T11:13:29.657Z,1.70
2022-08-30T11:16:10.625Z,1.58
2022-08-30T11:18:43.769Z,1.65
2022-08-30T11:21:37.098Z,1.50
2022-08-30T11:24:10.840Z,1.70
2022-08-30T11:26:50.858Z,1.98
2022-08-30T11:29:30.039Z,1.70
2022-08-30T11:32:15.755Z,2.40
2022-08-30T11:34:48.540Z,1.45
2022-08-30T11:37:25.717Z,1.60
2022-08-30T11:39:53.407Z,1.80
2022-08-30T11:42:29.840Z,1.85
2022-08-30T11:45:16.945Z,1.77
2022-08-30T11:47:48.383Z,1.75
2022-08-30T11:50:20.464Z,2.08
2022-08-30T11:52:50.977Z,2.08
2022-08-30T11:55:22.982Z,1.80
2022-08-30T11:57:59.918Z,2.05
2022-08-30T12:00:28.750Z,1.65
2022-08-30T12:03:00.196Z,1.88
2022-08-30T12:05:45.698Z,2.00
2022-08-30T12:08:24.183Z,1.95
2022-08-30T12:10:56.319Z,2.00
2022-08-30T12:13:38.734Z,1.80
2022-08-30T12:16:11.997Z,2.00
2022-08-30T12:18:43.145Z,1.70
2022-08-30T12:21:21.494Z,1.80
2022-08-30T12:23:51.541Z,1.80
2022-08-30T12:28:48.898Z,1.80
2022-08-30T12:31:21.611Z,1.60
2022-08-30T12:33:56.608Z,1.98
2022-08-30T12:36:36.024Z,1.75
2022-08-30T12:39:07.993Z,1.92
2022-08-30T12:41:36.865Z,1.52
2022-08-30T12:44:14.023Z,1.80
2022-08-30T12:46:42.002Z,1.95
2022-08-30T12:49:09.212Z,2.03
2022-08-30T12:51:41.166Z,1.85
2022-08-30T12:54:18.990Z,1.85
2022-08-30T12:56:50.652Z,1.70
2022-08-30T12:59:36.826Z,1.83
2022-08-30T13:02:08.884Z,1.80
2022-08-30T13:04:47.698Z,1.73
2022-08-30T13:07:28.922Z,2.13
2022-08-30T13:10:06.076Z,1.63
2022-08-30T13:12:36.015Z,1.80
2022-08-30T13:15:10.267Z,1.80
2022-08-30T13:17:37.355Z,1.75
2022-08-30T13:20:13.568Z,1.98
2022-08-30T13:22:43.941Z,1.95
2022-08-30T13:25:11.356Z,1.90
2022-08-30T13:27:38.897Z,1.80
2022-08-30T13:30:13.736Z,2.22
2022-08-30T13:32:41.696Z,2.08
2022-08-30T13:35:09.040Z,2.05
2022-08-30T13:37:52.059Z,1.90
2022-08-30T13:40:19.539Z,2.17
2022-08-30T13:42:46.933Z,1.98
2022-08-30T13:48:01.347Z,2.30
2022-08-30T13:50:28.432Z,1.80
2022-08-30T13:52:57.702Z,1.90
2022-08-30T13:55:25.096Z,2.00
2022-08-30T13:57:53.816Z,1.85
2022-08-30T14:00:22.195Z,1.90
2022-08-30T14:02:54.618Z,2.30
2022-08-30T14:10:58.312Z,1.73
2022-08-30T14:13:25.550Z,2.08
2022-08-30T14:18:41.586Z,2.15
2022-08-30T14:21:08.647Z,2.28
2022-08-30T14:23:35.691Z,2.17
2022-08-30T14:26:05.206Z,1.70
2022-08-30T14:28:32.278Z,2.03
2022-08-30T14:30:59.358Z,1.95
2022-08-30T14:33:26.390Z,1.70
2022-08-30T14:35:53.588Z,1.73
2022-08-30T14:38:20.698Z,1.80
2022-08-30T14:40:47.886Z,1.88
2022-08-30T14:43:15.002Z,1.90
2022-08-30T14:45:43.251Z,1.75
2022-08-30T14:48:11.739Z,2.00
2022-08-30T14:50:39.631Z,1.90
2022-08-30T14:53:07.085Z,1.70
2022-08-30T14:55:34.419Z,2.15
2022-08-30T14:58:01.739Z,2.30
2022-08-30T15:00:29.047Z,2.20
2022-08-30T15:02:56.119Z,2.08
2022-08-30T15:05:23.347Z,2.40
2022-08-30T15:07:51.502Z,4.22
2022-08-30T15:10:20.014Z,2.30
2022-08-30T15:12:50.457Z,2.95
2022-08-30T15:15:21.077Z,2.97
2022-08-30T15:17:48.664Z,1.90
2022-08-30T15:20:18.730Z,2.00
2022-08-30T15:22:46.305Z,2.20
2022-08-30T15:25:13.716Z,1.92
2022-08-30T15:27:40.745Z,2.20
2022-08-30T15:30:08.100Z,1.92
2022-08-30T15:32:38.044Z,1.83
2022-08-30T15:35:05.575Z,1.90
2022-08-30T15:37:34.991Z,2.05
2022-08-30T15:40:04.642Z,2.00
2022-08-30T15:42:33.612Z,2.60
2022-08-30T15:47:37.005Z,2.17
2022-08-30T15:50:04.958Z,1.95
2022-08-30T15:52:32.163Z,1.95
2022-08-30T15:54:58.813Z,2.20
2022-08-30T15:57:26.449Z,2.13
2022-08-30T15:59:54.525Z,2.05
2022-08-30T16:02:21.541Z,2.15
2022-08-30T16:04:54.374Z,2.20
2022-08-30T16:07:20.989Z,1.80
2022-08-30T16:09:47.688Z,2.40
2022-08-30T16:12:22.476Z,2.30
2022-08-30T16:14:50.798Z,2.47
2022-08-30T16:17:17.423Z,2.50
2022-08-30T16:19:45.432Z,2.10
2022-08-30T16:22:12.527Z,2.70
2022-08-30T16:24:42.263Z,2.38
2022-08-30T16:27:13.647Z,2.10
2022-08-30T16:29:40.717Z,2.25
2022-08-30T16:32:07.740Z,2.30
2022-08-30T16:34:35.697Z,2.45
2022-08-30T16:37:02.806Z,2.40
2022-08-30T16:39:29.448Z,2.58
2022-08-30T16:41:57.765Z,2.55
2022-08-30T16:44:24.804Z,2.50
2022-08-30T16:46:57.254Z,2.20
2022-08-30T16:49:25.397Z,2.45
2022-08-30T16:51:52.509Z,2.28
2022-08-30T16:54:20.106Z,2.00
2022-08-30T16:56:47.136Z,2.60
2022-08-30T16:59:14.451Z,2.33
2022-08-30T17:01:43.914Z,2.00
2022-08-30T17:04:15.766Z,2.50
2022-08-30T17:06:45.595Z,2.42
2022-08-30T17:09:14.904Z,2.40
2022-08-30T17:11:42.299Z,2.25
2022-08-30T17:14:09.684Z,2.30
2022-08-30T17:16:37.246Z,2.45
2022-08-30T17:19:04.502Z,1.92
2022-08-30T17:21:32.221Z,2.47
2022-08-30T17:24:02.509Z,2.05
2022-08-30T17:26:33.342Z,2.08
2022-08-30T17:29:00.388Z,2.10
2022-08-30T17:31:30.101Z,2.40
2022-08-30T17:34:02.871Z,2.42
2022-08-30T17:36:31.153Z,2.15
2022-08-30T17:38:58.335Z,2.30
2022-08-30T17:41:25.763Z,4.50
2022-08-30T17:43:54.377Z,3.22
2022-08-30T17:46:21.650Z,2.30
2022-08-30T17:48:57.800Z,4.22
2022-08-30T17:51:28.857Z,2.47
2022-08-30T17:53:55.900Z,2.90
2022-08-30T17:56:24.582Z,4.07
2022-08-30T17:59:01.421Z,2.67
2022-08-30T18:01:28.736Z,3.25
2022-08-30T18:04:01.751Z,3.10
2022-08-30T18:06:29.347Z,2.47
2022-08-30T18:08:56.479Z,3.22
2022-08-30T18:11:23.541Z,3.17
2022-08-30T18:13:50.600Z,2.90
2022-08-30T18:19:04.914Z,2.53
2022-08-30T18:21:36.489Z,2.50
2022-08-30T18:24:03.419Z,2.42
2022-08-30T18:26:31.834Z,3.20
2022-08-30T18:28:59.022Z,2.55
2022-08-30T18:31:26.187Z,2.70
2022-08-30T18:33:55.131Z,3.65
2022-08-30T18:36:21.856Z,2.70
2022-08-30T18:38:48.866Z,2.60
2022-08-30T18:41:15.564Z,2.28
2022-08-30T18:43:43.031Z,2.28
2022-08-30T18:46:13.018Z,2.50
2022-08-30T18:48:41.325Z,6.68
2022-08-30T18:51:15.699Z,2.90
2022-08-30T18:53:42.591Z,2.50
2022-08-30T18:56:10.885Z,2.88
2022-08-30T18:58:40.175Z,2.75
2022-08-30T19:01:11.423Z,2.13
2022-08-30T19:03:39.787Z,2.58
2022-08-30T19:06:09.943Z,2.65
2022-08-30T19:08:36.945Z,2.35
2022-08-30T19:13:51.052Z,2.60
2022-08-30T19:16:18.367Z,2.58
2022-08-30T19:18:45.053Z,2.22
2022-08-30T19:21:14.233Z,2.58
2022-08-30T19:23:40.952Z,2.40
2022-08-30T19:26:07.590Z,2.67
2022-08-30T19:28:37.594Z,2.33
2022-08-30T19:31:04.392Z,2.75
2022-08-30T19:33:33.379Z,2.72
2022-08-30T19:36:00.453Z,2.25
2022-08-30T19:38:27.296Z,2.50
2022-08-30T19:41:00.146Z,2.58
2022-08-30T19:43:27.646Z,2.22
2022-08-30T19:46:00.284Z,2.20
2022-08-30T19:48:32.172Z,2.42
2022-08-30T19:51:01.249Z,2.22
2022-08-30T19:53:27.868Z,2.40
2022-08-30T19:55:54.715Z,2.47
2022-08-30T19:58:21.521Z,2.50
2022-08-30T20:00:54.195Z,2.53
2022-08-30T20:03:24.536Z,2.20
2022-08-30T20:05:51.180Z,2.72
2022-08-30T20:08:17.823Z,2.40
2022-08-30T20:10:44.720Z,2.60
2022-08-30T20:13:11.375Z,2.47
2022-08-30T20:15:38.030Z,2.83
2022-08-30T20:18:05.482Z,2.72
2022-08-30T20:20:33.551Z,2.72
2022-08-30T20:23:03.001Z,3.15
2022-08-30T20:24:26.713Z,2.78
2022-08-30T20:24:32.009Z,2.72
2022-08-30T20:25:30.717Z,2.38
2022-08-30T20:27:59.275Z,2.38
2022-08-30T20:30:26.056Z,3.13
2022-08-30T20:32:54.051Z,2.95
2022-08-30T20:35:20.842Z,3.22
2022-08-30T20:37:47.654Z,2.85
2022-08-30T20:40:15.983Z,3.03
2022-08-30T20:42:45.517Z,2.85
2022-08-30T20:45:14.322Z,2.80
2022-08-30T20:47:41.551Z,2.55
2022-08-30T20:50:13.634Z,3.08
2022-08-30T20:52:40.640Z,2.85
2022-08-30T20:55:08.219Z,2.58
2022-08-30T20:57:34.848Z,2.90
2022-08-30T21:00:01.638Z,3.00
2022-08-30T21:02:28.368Z,3.28
2022-08-30T21:04:55.109Z,3.33
2022-08-30T21:07:21.801Z,2.88
2022-08-30T21:09:48.449Z,3.03
2022-08-30T21:12:15.124Z,3.55
2022-08-30T21:14:41.715Z,3.00
2022-08-30T21:17:08.403Z,3.25
2022-08-30T21:19:35.050Z,3.20
2022-08-30T21:22:03.631Z,3.20
2022-08-30T21:24:31.795Z,3.28
2022-08-30T21:26:58.795Z,3.92
2022-08-30T21:29:27.980Z,3.13
2022-08-30T21:31:55.331Z,3.47
2022-08-30T21:34:22.002Z,3.05
2022-08-30T21:36:48.668Z,3.47
2022-08-30T21:39:24.551Z,3.65
2022-08-30T21:41:54.381Z,3.55
2022-08-30T21:44:22.225Z,3.53
2022-08-30T21:46:49.106Z,3.33
2022-08-30T21:49:17.385Z,3.40
2022-08-30T21:51:44.939Z,3.70
2022-08-30T21:54:12.633Z,3.38
2022-08-30T21:56:40.164Z,3.80
2022-08-30T21:59:07.157Z,3.88
2022-08-30T22:01:34.080Z,3.22
2022-08-30T22:04:04.773Z,3.00
2022-08-30T22:06:32.751Z,3.15
2022-08-30T22:09:01.125Z,3.67
2022-08-30T22:11:28.339Z,3.47
2022-08-30T22:13:55.538Z,3.30
2022-08-30T22:16:22.395Z,3.40
2022-08-30T22:18:49.086Z,3.50
2022-08-30T22:21:17.490Z,2.92
2022-08-30T22:23:44.969Z,2.90
2022-08-30T22:26:12.066Z,3.38
2022-08-30T22:28:38.851Z,2.97
2022-08-30T22:31:07.805Z,3.00
2022-08-30T22:33:34.568Z,3.00
2022-08-30T22:36:08.189Z,3.40
2022-08-30T22:38:34.886Z,3.53
2022-08-30T22:41:01.526Z,3.05
2022-08-30T22:43:28.234Z,3.35
2022-08-30T22:45:56.845Z,3.22
2022-08-30T22:48:23.548Z,3.40
2022-08-30T22:50:50.165Z,3.38
2022-08-30T22:53:16.945Z,3.15
2022-08-30T22:55:43.648Z,3.13
2022-08-30T22:58:10.280Z,3.17
2022-08-30T23:00:39.218Z,3.72
2022-08-30T23:03:05.954Z,3.63
2022-08-30T23:05:32.562Z,3.50
2022-08-30T23:07:59.954Z,3.30
2022-08-30T23:10:27.926Z,3.30
2022-08-30T23:12:55.360Z,3.10
2022-08-30T23:15:22.212Z,3.28
2022-08-30T23:17:49.162Z,3.10
2022-08-30T23:20:15.885Z,3.10
2022-08-30T23:22:42.562Z,3.33
2022-08-30T23:25:28.035Z,2.95
2022-08-30T23:28:20.750Z,3.45
2022-08-30T23:31:05.894Z,2.90
2022-08-30T23:33:51.037Z,3.38
2022-08-30T23:36:36.528Z,2.83
2022-08-30T23:39:21.618Z,3.22
2022-08-30T23:42:06.622Z,2.95
2022-08-30T23:44:51.778Z,3.47
2022-08-30T23:47:36.767Z,3.10
2022-08-30T23:50:22.406Z,3.10
2022-08-30T23:53:07.603Z,3.17
2022-08-30T23:55:56.653Z,3.13
2022-08-30T23:58:41.957Z,3.30
